createdAt,value
2018-04-10T00:00:37.756Z,9.87
2018-04-10T00:03:05.399Z,12.50
2018-04-10T00:05:33.020Z,7.23
2018-04-10T00:08:00.612Z,14.13
2018-04-10T00:10:28.220Z,15.07
2018-04-10T00:12:55.838Z,11.67
2018-04-10T00:15:23.421Z,14.10
2018-04-10T00:17:51.060Z,10.57
2018-04-10T00:20:18.736Z,11.23
2018-04-10T00:22:46.374Z,10.30
2018-04-10T00:25:14.008Z,18.77
2018-04-10T00:27:41.594Z,12.83
2018-04-10T00:30:09.178Z,9.67
2018-04-10T00:32:36.805Z,15.13
2018-04-10T00:35:04.477Z,12.43
2018-04-10T00:37:32.105Z,12.80
2018-04-10T00:39:59.709Z,14.90
2018-04-10T00:42:27.295Z,17.40
2018-04-10T00:44:54.885Z,15.73
2018-04-10T00:47:22.510Z,12.03
2018-04-10T00:49:50.108Z,12.63
2018-04-10T00:52:17.708Z,14.63
2018-04-10T00:54:45.300Z,14.40
2018-04-10T00:57:12.884Z,14.50
2018-04-10T00:59:40.470Z,12.60
2018-04-10T01:02:08.061Z,14.97
2018-04-10T01:04:35.690Z,16.90
2018-04-10T01:07:03.285Z,16.00
2018-04-10T01:09:30.884Z,13.87
2018-04-10T01:11:58.492Z,16.00
2018-04-10T01:14:26.077Z,14.03
2018-04-10T01:16:53.712Z,13.10
2018-04-10T01:19:21.301Z,11.93
2018-04-10T01:21:48.896Z,14.20
2018-04-10T01:24:16.526Z,18.73
2018-04-10T01:26:44.116Z,15.60
2018-04-10T01:29:11.708Z,15.67
2018-04-10T01:31:39.336Z,17.20
2018-04-10T01:34:06.916Z,11.30
2018-04-10T01:36:34.504Z,15.30
2018-04-10T01:39:02.129Z,14.50
2018-04-10T01:41:29.732Z,12.90
2018-04-10T01:43:57.317Z,14.37
2018-04-10T01:46:24.952Z,18.23
2018-04-10T01:48:52.546Z,14.50
2018-04-10T01:51:20.184Z,14.70
2018-04-10T01:53:47.784Z,14.73
2018-04-10T01:56:15.400Z,13.70
2018-04-10T01:58:43.000Z,15.10
2018-04-10T02:01:10.593Z,13.17
2018-04-10T02:03:38.184Z,16.73
2018-04-10T02:06:05.769Z,12.13
2018-04-10T02:08:33.392Z,18.43
2018-04-10T02:11:00.986Z,15.70
2018-04-10T02:13:28.581Z,15.40
2018-04-10T02:15:56.208Z,13.47
2018-04-10T02:18:23.844Z,15.20
2018-04-10T02:20:51.468Z,15.03
2018-04-10T02:23:19.068Z,16.13
2018-04-10T02:25:46.668Z,13.40
2018-04-10T02:28:14.312Z,22.80
2018-04-10T02:30:41.900Z,12.07
2018-04-10T02:33:09.508Z,13.67
2018-04-10T02:35:37.136Z,17.17
2018-04-10T02:38:04.757Z,15.37
2018-04-10T02:40:32.370Z,17.73
2018-04-10T02:42:59.961Z,15.23
2018-04-10T02:45:27.590Z,17.97
2018-04-10T02:47:55.244Z,19.27
2018-04-10T02:50:22.834Z,16.20
2018-04-10T02:52:50.442Z,19.70
2018-04-10T02:55:18.085Z,18.07
2018-04-10T02:57:45.673Z,14.93
2018-04-10T03:00:13.284Z,13.53
2018-04-10T03:02:40.932Z,20.30
2018-04-10T03:05:08.530Z,18.63
2018-04-10T03:07:36.136Z,15.20
2018-04-10T03:10:03.789Z,14.83
2018-04-10T03:12:31.397Z,16.60
2018-04-10T03:14:59.009Z,20.83
2018-04-10T03:17:26.644Z,20.23
2018-04-10T03:19:54.265Z,17.27
2018-04-10T03:22:21.889Z,19.80
2018-04-10T03:24:49.528Z,19.83
2018-04-10T03:27:17.149Z,17.87
2018-04-10T03:29:44.732Z,20.47
2018-04-10T03:32:12.336Z,15.17
2018-04-10T03:34:39.965Z,17.47
2018-04-10T03:37:07.632Z,27.43
2018-04-10T03:39:35.228Z,14.80
2018-04-10T03:42:02.816Z,18.17
2018-04-10T03:44:30.420Z,22.30
2018-04-10T03:46:58.017Z,21.60
2018-04-10T03:49:25.605Z,22.97
2018-04-10T03:51:53.288Z,20.80
2018-04-10T03:54:20.895Z,23.97
2018-04-10T03:56:48.496Z,18.23
2018-04-10T03:59:16.119Z,21.40
2018-04-10T04:01:43.728Z,24.77
2018-04-10T04:04:11.321Z,20.83
2018-04-10T04:06:38.913Z,24.40
2018-04-10T04:09:06.596Z,17.63
2018-04-10T04:11:34.261Z,25.70
2018-04-10T04:14:01.887Z,15.73
2018-04-10T04:16:41.114Z,28.47
2018-04-10T04:19:20.268Z,16.70
2018-04-10T04:24:52.730Z,22.03
2018-04-10T04:27:20.357Z,19.97
2018-04-10T04:29:48.052Z,28.47
2018-04-10T04:32:15.892Z,22.87
2018-04-10T04:34:43.532Z,25.10
2018-04-10T04:37:11.188Z,27.53
2018-04-10T04:39:38.776Z,25.10
2018-04-10T04:42:06.413Z,29.30
2018-04-10T04:44:34.020Z,29.83
2018-04-10T04:47:01.633Z,31.23
2018-04-10T04:49:29.438Z,33.53
2018-04-10T04:51:57.028Z,26.80
2018-04-10T04:54:24.681Z,27.30
2018-04-10T04:56:52.277Z,29.17
2018-04-10T04:59:19.889Z,27.77
2018-04-10T05:01:47.530Z,24.50
2018-04-10T05:04:15.137Z,28.73
2018-04-10T05:06:42.737Z,27.83
2018-04-10T05:09:10.328Z,31.13
2018-04-10T05:11:37.968Z,35.40
2018-04-10T05:14:05.584Z,28.57
2018-04-10T05:16:33.220Z,29.20
2018-04-10T05:19:00.825Z,31.50
2018-04-10T05:21:28.417Z,27.37
2018-04-10T05:23:57.121Z,31.20
2018-04-10T05:26:25.123Z,27.83
2018-04-10T05:28:52.776Z,36.53
2018-04-10T05:31:20.376Z,30.27
2018-04-10T05:33:47.974Z,35.57
2018-04-10T05:36:15.617Z,30.93
2018-04-10T05:38:43.213Z,27.77
2018-04-10T05:41:10.853Z,40.73
2018-04-10T05:43:38.485Z,30.20
2018-04-10T05:46:06.305Z,28.47
2018-04-10T05:48:33.928Z,27.13
2018-04-10T05:51:01.549Z,26.03
2018-04-10T05:53:29.169Z,27.03
2018-04-10T05:55:56.778Z,23.17
2018-04-10T05:58:24.403Z,20.50
2018-04-10T06:00:52.004Z,23.00
2018-04-10T06:03:19.640Z,19.97
2018-04-10T06:05:47.261Z,29.30
2018-04-10T06:08:14.905Z,23.77
2018-04-10T06:10:42.491Z,28.57
2018-04-10T06:13:10.085Z,22.10
2018-04-10T06:15:37.686Z,20.73
2018-04-10T06:18:05.288Z,23.70
2018-04-10T06:20:32.957Z,19.33
2018-04-10T06:23:00.576Z,24.20
2018-04-10T06:25:28.161Z,19.23
2018-04-10T06:27:55.757Z,22.77
2018-04-10T06:30:23.340Z,21.03
2018-04-10T06:32:50.966Z,23.53
2018-04-10T06:35:18.561Z,16.70
2018-04-10T06:37:46.164Z,25.37
2018-04-10T06:40:13.769Z,22.73
2018-04-10T06:42:41.382Z,26.50
2018-04-10T06:45:09.036Z,17.87
2018-04-10T06:47:36.678Z,22.50
2018-04-10T06:50:04.321Z,18.80
2018-04-10T06:52:31.958Z,22.03
2018-04-10T06:55:07.470Z,20.70
2018-04-10T06:57:35.338Z,19.07
2018-04-10T07:00:02.933Z,17.77
2018-04-10T07:02:30.648Z,19.77
2018-04-10T07:04:58.273Z,18.83
2018-04-10T07:07:25.893Z,14.50
2018-04-10T07:09:53.505Z,20.97
2018-04-10T07:12:21.157Z,20.23
2018-04-10T07:14:48.756Z,24.07
2018-04-10T07:17:16.348Z,17.00
2018-04-10T07:19:43.937Z,19.97
2018-04-10T07:22:11.589Z,19.47
2018-04-10T07:24:39.181Z,21.93
2018-04-10T07:27:06.781Z,25.90
2018-04-10T07:29:34.404Z,22.43
2018-04-10T07:32:02.026Z,20.43
2018-04-10T07:34:29.638Z,19.90
2018-04-10T07:36:57.260Z,19.57
2018-04-10T07:39:24.853Z,19.50
2018-04-10T07:41:52.440Z,15.40
2018-04-10T07:44:20.041Z,19.70
2018-04-10T07:46:47.760Z,14.40
2018-04-10T07:49:15.347Z,17.53
2018-04-10T07:51:42.993Z,13.33
2018-04-10T07:54:10.782Z,21.27
2018-04-10T07:56:38.409Z,16.07
2018-04-10T07:59:06.001Z,20.97
2018-04-10T08:01:33.641Z,14.83
2018-04-10T08:04:01.281Z,9.97
2018-04-10T08:06:28.866Z,14.13
2018-04-10T08:08:56.491Z,15.47
2018-04-10T08:11:24.084Z,15.23
2018-04-10T08:13:51.724Z,10.33
2018-04-10T08:16:19.349Z,13.00
2018-04-10T08:18:46.970Z,19.00
2018-04-10T08:21:14.553Z,13.20
2018-04-10T08:23:42.236Z,14.37
2018-04-10T08:26:09.816Z,15.07
2018-04-10T08:28:37.437Z,12.40
2018-04-10T08:31:05.081Z,13.50
2018-04-10T08:33:32.688Z,9.10
2018-04-10T08:36:00.269Z,13.53
2018-04-10T08:38:27.897Z,9.67
2018-04-10T08:40:55.472Z,12.00
2018-04-10T08:43:23.086Z,10.53
2018-04-10T08:45:50.683Z,11.80
2018-04-10T08:48:18.271Z,14.47
2018-04-10T08:50:45.881Z,16.17
2018-04-10T08:53:13.477Z,10.30
2018-04-10T08:55:41.166Z,15.93
2018-04-10T08:58:08.757Z,12.27
2018-04-10T09:00:36.361Z,16.00
2018-04-10T09:03:04.009Z,12.37
2018-04-10T09:05:31.625Z,18.27
2018-04-10T09:07:59.225Z,12.40
2018-04-10T09:10:26.853Z,16.27
2018-04-10T09:12:54.495Z,17.50
2018-04-10T09:15:22.132Z,11.77
2018-04-10T09:17:49.733Z,11.43
2018-04-10T09:20:17.332Z,11.37
2018-04-10T09:22:44.920Z,11.07
2018-04-10T09:25:12.620Z,17.17
2018-04-10T09:27:40.290Z,11.87
2018-04-10T09:30:07.920Z,19.00
2018-04-10T09:32:35.510Z,11.07
2018-04-10T09:35:03.090Z,11.77
2018-04-10T09:37:30.716Z,14.80
2018-04-10T09:39:58.308Z,13.83
2018-04-10T09:42:25.909Z,12.50
2018-04-10T09:44:53.520Z,13.37
2018-04-10T09:47:21.141Z,9.40
2018-04-10T09:49:48.732Z,13.60
2018-04-10T09:52:16.353Z,14.43
2018-04-10T09:54:43.991Z,11.63
2018-04-10T09:57:11.581Z,16.83
2018-04-10T09:59:39.173Z,14.60
2018-04-10T10:02:06.749Z,12.30
2018-04-10T10:04:34.414Z,12.00
2018-04-10T10:07:02.037Z,14.13
2018-04-10T10:09:29.638Z,15.07
2018-04-10T10:11:57.297Z,12.03
2018-04-10T10:14:24.880Z,12.57
2018-04-10T10:16:52.460Z,9.90
2018-04-10T10:19:20.095Z,18.60
2018-04-10T10:21:47.709Z,14.10
2018-04-10T10:24:15.324Z,10.40
2018-04-10T10:26:42.965Z,10.30
2018-04-10T10:29:10.549Z,21.70
2018-04-10T10:31:38.150Z,11.23
2018-04-10T10:34:05.789Z,17.87
2018-04-10T10:36:33.370Z,10.57
2018-04-10T10:39:00.953Z,21.27
2018-04-10T10:41:28.545Z,13.40
2018-04-10T10:43:56.141Z,11.67
2018-04-10T10:46:23.754Z,11.83
2018-04-10T10:48:51.338Z,10.80
2018-04-10T10:51:18.933Z,12.53
2018-04-10T10:53:46.561Z,8.43
2018-04-10T10:56:14.177Z,7.27
2018-04-10T10:58:41.784Z,8.97
2018-04-10T11:01:09.365Z,8.70
2018-04-10T11:03:37.005Z,9.07
2018-04-10T11:06:04.633Z,11.60
2018-04-10T11:08:32.257Z,7.70
2018-04-10T11:10:59.846Z,10.90
2018-04-10T11:13:27.465Z,11.43
2018-04-10T11:15:55.133Z,10.30
2018-04-10T11:18:22.725Z,14.27
2018-04-10T11:20:50.320Z,12.23
2018-04-10T11:23:17.963Z,9.73
2018-04-10T11:25:45.548Z,10.37
2018-04-10T11:28:13.144Z,6.27
2018-04-10T11:30:40.794Z,8.37
2018-04-10T11:33:08.503Z,11.10
2018-04-10T11:35:36.109Z,10.67
2018-04-10T11:38:03.696Z,13.63
2018-04-10T11:40:31.283Z,7.87
2018-04-10T11:42:58.904Z,21.17
2018-04-10T11:45:26.528Z,12.20
2018-04-10T11:47:54.113Z,17.40
2018-04-10T11:50:21.697Z,15.03
2018-04-10T11:52:49.312Z,7.23
2018-04-10T11:55:16.929Z,9.33
2018-04-10T11:57:44.505Z,9.83
2018-04-10T12:00:12.142Z,7.13
2018-04-10T12:02:39.767Z,7.47
2018-04-10T12:05:07.443Z,13.43
2018-04-10T12:07:35.040Z,6.10
2018-04-10T12:10:02.629Z,8.93
2018-04-10T12:12:30.360Z,5.60
2018-04-10T12:14:57.942Z,5.53
2018-04-10T12:17:25.521Z,11.80
2018-04-10T12:19:53.157Z,7.03
2018-04-10T12:22:20.777Z,9.50
2018-04-10T12:24:48.360Z,8.57
2018-04-10T12:27:15.948Z,10.33
2018-04-10T12:29:43.566Z,6.80
2018-04-10T12:32:11.189Z,8.53
2018-04-10T12:34:38.780Z,8.60
2018-04-10T12:37:06.427Z,10.07
2018-04-10T12:39:34.028Z,11.37
2018-04-10T12:42:01.617Z,13.93
2018-04-10T12:44:29.238Z,9.07
2018-04-10T12:46:56.808Z,9.00
2018-04-10T12:49:24.414Z,8.23
2018-04-10T12:51:52.065Z,11.97
2018-04-10T12:54:19.656Z,11.43
2018-04-10T12:56:47.289Z,13.80
2018-04-10T12:59:14.888Z,8.20
2018-04-10T13:01:42.472Z,8.83
2018-04-10T13:04:10.100Z,9.57
2018-04-10T13:06:37.688Z,9.63
2018-04-10T13:09:08.073Z,7.60
2018-04-10T13:11:35.696Z,7.60
2018-04-10T13:14:03.352Z,10.43
2018-04-10T13:16:30.939Z,10.03
2018-04-10T13:18:58.561Z,10.93
2018-04-10T13:21:26.138Z,8.17
2018-04-10T13:23:53.720Z,7.97
2018-04-10T13:26:21.380Z,10.47
2018-04-10T13:28:48.958Z,9.70
2018-04-10T13:31:16.590Z,9.73
2018-04-10T13:33:44.201Z,6.63
2018-04-10T13:36:11.789Z,6.40
2018-04-10T13:38:39.400Z,6.90
2018-04-10T13:41:07.020Z,5.90
2018-04-10T13:43:34.601Z,6.63
2018-04-10T13:46:02.223Z,7.00
2018-04-10T13:48:29.804Z,8.07
2018-04-10T13:50:57.405Z,11.10
2018-04-10T13:53:24.989Z,8.33
2018-04-10T13:55:52.581Z,5.97
2018-04-10T13:58:20.189Z,7.67
2018-04-10T14:00:47.808Z,8.27
2018-04-10T14:03:15.436Z,10.13
2018-04-10T14:05:43.059Z,9.53
2018-04-10T14:08:10.725Z,6.73
2018-04-10T14:10:38.329Z,9.70
2018-04-10T14:13:05.921Z,11.03
2018-04-10T14:15:33.548Z,14.33
2018-04-10T14:18:01.138Z,7.73
2018-04-10T14:20:28.721Z,7.53
2018-04-10T14:22:56.361Z,10.17
2018-04-10T14:25:24.021Z,10.13
2018-04-10T14:27:51.629Z,7.33
2018-04-10T14:30:19.284Z,7.63
2018-04-10T14:32:46.873Z,6.33
2018-04-10T14:35:14.489Z,9.13
2018-04-10T14:37:42.122Z,11.93
2018-04-10T14:40:09.709Z,8.70
2018-04-10T14:42:37.313Z,9.10
2018-04-10T14:45:04.904Z,9.87
2018-04-10T14:47:32.543Z,13.30
2018-04-10T14:50:00.126Z,9.13
2018-04-10T14:52:27.805Z,6.47
2018-04-10T14:54:55.433Z,7.47
2018-04-10T14:57:23.023Z,9.07
2018-04-10T14:59:50.696Z,7.83
2018-04-10T15:02:18.308Z,14.57
2018-04-10T15:04:45.940Z,9.30
2018-04-10T15:07:13.529Z,10.37
2018-04-10T15:09:41.112Z,9.00
2018-04-10T15:12:08.706Z,13.43
2018-04-10T15:14:36.326Z,10.03
2018-04-10T15:17:03.921Z,13.77
2018-04-10T15:19:31.547Z,15.47
2018-04-10T15:21:59.172Z,6.57
2018-04-10T15:24:26.755Z,13.30
2018-04-10T15:26:54.345Z,12.50
2018-04-10T15:29:21.937Z,8.67
2018-04-10T15:31:49.575Z,6.37
2018-04-10T15:34:17.204Z,10.70
2018-04-10T15:36:44.757Z,9.33
2018-04-10T15:39:12.393Z,12.40
2018-04-10T15:41:40.053Z,10.47
2018-04-10T15:44:07.633Z,10.33
2018-04-10T15:46:35.225Z,7.97
2018-04-10T15:49:02.864Z,9.70
2018-04-10T15:51:30.456Z,7.37
2018-04-10T15:53:58.037Z,12.60
2018-04-10T15:56:25.648Z,13.43
2018-04-10T15:58:53.266Z,10.60
2018-04-10T16:01:20.849Z,9.00
2018-04-10T16:03:48.457Z,10.50
2018-04-10T16:06:16.125Z,12.07
2018-04-10T16:08:43.744Z,11.97
2018-04-10T16:11:11.337Z,14.70
2018-04-10T16:13:40.653Z,11.77
2018-04-10T16:16:08.237Z,16.50
2018-04-10T16:18:35.833Z,17.30
2018-04-10T16:21:03.494Z,14.50
2018-04-10T16:23:31.188Z,19.93
2018-04-10T16:25:58.809Z,15.23
2018-04-10T16:28:26.404Z,17.03
2018-04-10T16:30:54.050Z,15.33
2018-04-10T16:33:21.629Z,10.23
2018-04-10T16:35:49.241Z,13.50
2018-04-10T16:38:16.857Z,14.33
2018-04-10T16:40:44.449Z,11.00
2018-04-10T16:43:12.051Z,11.20
2018-04-10T16:45:39.636Z,12.40
2018-04-10T16:48:07.393Z,10.27
2018-04-10T16:50:35.012Z,17.07
2018-04-10T16:53:02.630Z,13.07
2018-04-10T16:55:30.248Z,14.37
2018-04-10T16:57:57.833Z,13.63
2018-04-10T17:00:25.430Z,15.77
2018-04-10T17:02:53.060Z,17.97
2018-04-10T17:05:20.894Z,16.87
2018-04-10T17:07:49.134Z,13.53
2018-04-10T17:10:17.114Z,11.97
2018-04-10T17:12:44.853Z,14.77
2018-04-10T17:15:12.769Z,17.33
2018-04-10T17:17:40.989Z,17.37
2018-04-10T17:20:09.372Z,16.97
2018-04-10T17:22:37.421Z,12.07
2018-04-10T17:25:05.034Z,16.17
2018-04-10T17:27:32.618Z,27.00
2018-04-10T17:30:00.280Z,10.80
2018-04-10T17:32:27.917Z,14.43
2018-04-10T17:34:55.518Z,14.23
2018-04-10T17:37:23.218Z,15.30
2018-04-10T17:39:50.852Z,14.50
2018-04-10T17:42:18.483Z,13.40
2018-04-10T17:44:46.060Z,16.13
2018-04-10T17:47:13.656Z,17.77
2018-04-10T17:49:41.352Z,15.37
2018-04-10T17:52:08.969Z,19.47
2018-04-10T17:54:36.657Z,14.93
2018-04-10T17:57:04.343Z,15.70
2018-04-10T17:59:32.227Z,13.37
2018-04-10T18:01:59.945Z,15.87
2018-04-10T18:04:27.585Z,17.30
2018-04-10T18:06:55.325Z,17.33
2018-04-10T18:09:22.929Z,19.87
2018-04-10T18:11:50.559Z,21.53
2018-04-10T18:14:18.173Z,19.63
2018-04-10T18:16:46.961Z,17.13
2018-04-10T18:19:14.598Z,18.30
2018-04-10T18:21:42.229Z,18.33
2018-04-10T18:24:09.808Z,17.20
2018-04-10T18:26:37.430Z,20.17
2018-04-10T18:29:05.053Z,15.90
2018-04-10T18:31:32.649Z,15.50
2018-04-10T18:34:00.229Z,14.57
2018-04-10T18:36:27.857Z,18.93
2018-04-10T18:38:55.476Z,19.23
2018-04-10T18:41:23.100Z,17.83
2018-04-10T18:43:50.748Z,15.53
2018-04-10T18:46:18.353Z,16.07
2018-04-10T18:48:45.985Z,18.23
2018-04-10T18:51:13.574Z,15.67
2018-04-10T18:53:41.173Z,12.57
2018-04-10T18:56:08.772Z,16.60
2018-04-10T18:58:36.412Z,14.10
2018-04-10T19:01:04.033Z,12.83
2018-04-10T19:03:31.892Z,13.93
2018-04-10T19:05:59.522Z,14.80
2018-04-10T19:08:27.104Z,7.40
2018-04-10T19:10:54.692Z,13.03
2018-04-10T19:13:22.281Z,8.00
2018-04-10T19:15:49.877Z,9.57
2018-04-10T19:18:17.457Z,8.13
2018-04-10T19:20:45.085Z,13.93
2018-04-10T19:23:12.670Z,11.10
2018-04-10T19:25:40.265Z,6.90
2018-04-10T19:28:07.940Z,9.90
2018-04-10T19:30:35.541Z,10.30
2018-04-10T19:33:03.225Z,10.13
2018-04-10T19:35:30.861Z,11.67
2018-04-10T19:37:58.443Z,9.87
2018-04-10T19:40:26.064Z,11.27
2018-04-10T19:42:53.741Z,9.30
2018-04-10T19:45:21.345Z,12.70
2018-04-10T19:47:48.933Z,9.73
2018-04-10T19:50:16.557Z,6.87
2018-04-10T19:52:44.166Z,8.07
2018-04-10T19:55:11.752Z,8.77
2018-04-10T19:57:39.417Z,9.23
2018-04-10T20:00:07.000Z,9.67
2018-04-10T20:02:34.593Z,9.47
2018-04-10T20:05:02.203Z,12.60
2018-04-10T20:07:29.789Z,16.43
2018-04-10T20:09:57.470Z,10.87
2018-04-10T20:12:25.103Z,15.57
2018-04-10T20:14:52.705Z,10.33
2018-04-10T20:17:20.292Z,10.53
2018-04-10T20:19:47.953Z,13.47
2018-04-10T20:22:15.577Z,14.27
2018-04-10T20:24:43.165Z,11.97
2018-04-10T20:27:10.753Z,14.33
2018-04-10T20:29:38.361Z,11.73
2018-04-10T20:32:05.981Z,13.77
2018-04-10T20:34:33.573Z,11.93
2018-04-10T20:37:01.234Z,15.20
2018-04-10T20:39:28.861Z,14.77
2018-04-10T20:41:56.453Z,15.47
2018-04-10T20:44:24.129Z,15.03
2018-04-10T20:46:51.714Z,15.07
2018-04-10T20:49:19.333Z,17.10
2018-04-10T20:51:46.969Z,12.03
2018-04-10T20:54:14.553Z,15.77
2018-04-10T20:56:42.137Z,13.23
2018-04-10T20:59:09.729Z,13.37
2018-04-10T21:01:37.352Z,14.63
2018-04-10T21:04:04.941Z,12.93
2018-04-10T21:06:32.534Z,16.33
2018-04-10T21:09:00.152Z,17.47
2018-04-10T21:11:27.817Z,13.93
2018-04-10T21:13:55.416Z,11.43
2018-04-10T21:16:23.057Z,13.07
2018-04-10T21:18:50.657Z,17.93
2018-04-10T21:21:18.245Z,24.77
2018-04-10T21:23:45.840Z,24.20
2018-04-10T21:26:13.435Z,25.73
2018-04-10T21:28:41.077Z,30.03
2018-04-10T21:31:08.817Z,29.87
2018-04-10T21:33:36.408Z,31.60
2018-04-10T21:36:03.997Z,35.17
2018-04-10T21:38:31.584Z,31.73
2018-04-10T21:40:59.184Z,29.23
2018-04-10T21:43:31.216Z,31.37
2018-04-10T21:45:58.842Z,29.10
2018-04-10T21:48:26.428Z,26.47
2018-04-10T21:50:54.021Z,27.23
2018-04-10T21:53:21.641Z,25.73
2018-04-10T21:55:49.241Z,24.03
2018-04-10T21:58:16.829Z,26.97
2018-04-10T22:00:44.969Z,24.27
2018-04-10T22:03:12.577Z,24.10
2018-04-10T22:05:40.287Z,25.83
2018-04-10T22:08:07.909Z,24.63
2018-04-10T22:10:35.496Z,30.93
2018-04-10T22:13:03.086Z,27.80
2018-04-10T22:15:30.676Z,25.17
2018-04-10T22:17:58.265Z,27.97
2018-04-10T22:20:25.897Z,29.30
2018-04-10T22:22:53.576Z,25.33
2018-04-10T22:25:21.160Z,27.07
2018-04-10T22:27:48.792Z,28.33
2018-04-10T22:30:16.420Z,27.10
2018-04-10T22:32:43.973Z,25.73
2018-04-10T22:35:11.581Z,24.23
2018-04-10T22:37:39.648Z,26.13
2018-04-10T22:40:07.288Z,23.37
2018-04-10T22:42:34.897Z,26.63
2018-04-10T22:45:02.549Z,28.47
2018-04-10T22:47:30.172Z,30.17
2018-04-10T22:49:57.782Z,20.93
2018-04-10T22:52:25.409Z,29.33
2018-04-10T22:54:53.038Z,34.63
2018-04-10T22:57:20.673Z,28.57
2018-04-10T22:59:48.322Z,30.33
2018-04-10T23:02:15.901Z,19.43
2018-04-10T23:04:43.530Z,28.47
2018-04-10T23:07:11.136Z,23.60
2018-04-10T23:09:38.733Z,25.13
2018-04-10T23:12:06.412Z,27.03
2018-04-10T23:14:34.013Z,21.47
2018-04-10T23:17:01.623Z,22.37
2018-04-10T23:19:29.250Z,23.53
2018-04-10T23:21:56.857Z,24.37
2018-04-10T23:24:24.529Z,27.87
2018-04-10T23:26:52.160Z,22.73
2018-04-10T23:29:19.771Z,17.93
2018-04-10T23:31:47.379Z,25.00
2018-04-10T23:34:14.967Z,19.57
2018-04-10T23:36:42.605Z,21.30
2018-04-10T23:39:10.244Z,25.87
2018-04-10T23:41:37.945Z,24.80
2018-04-10T23:44:05.589Z,22.23
2018-04-10T23:46:33.206Z,26.83
2018-04-10T23:49:00.797Z,23.33
2018-04-10T23:51:28.390Z,24.83
2018-04-10T23:53:55.985Z,19.83
2018-04-10T23:56:23.577Z,18.43
2018-04-10T23:58:51.177Z,18.30
